createdAt,value
2023-02-10T00:01:05.493Z,3.88
2023-02-10T00:03:34.835Z,3.79
2023-02-10T00:06:02.661Z,3.76
2023-02-10T00:08:30.730Z,3.75
2023-02-10T00:10:58.554Z,3.68
2023-02-10T00:13:26.200Z,3.74
2023-02-10T00:15:54.056Z,3.77
2023-02-10T00:18:21.758Z,3.72
2023-02-10T00:20:52.219Z,3.72
2023-02-10T00:23:19.592Z,3.65
2023-02-10T00:25:47.371Z,3.62
2023-02-10T00:28:14.978Z,3.61
2023-02-10T00:30:44.397Z,3.73
2023-02-10T00:33:11.759Z,3.75
2023-02-10T00:35:39.264Z,3.89
2023-02-10T00:38:07.972Z,3.93
2023-02-10T00:40:35.386Z,3.89
2023-02-10T00:43:08.521Z,4.00
2023-02-10T00:45:39.166Z,3.87
2023-02-10T00:48:06.982Z,3.92
2023-02-10T00:50:34.436Z,3.87
2023-02-10T00:53:03.671Z,3.80
2023-02-10T00:55:32.371Z,4.02
2023-02-10T00:58:01.031Z,3.99
2023-02-10T01:00:28.426Z,3.87
2023-02-10T01:02:55.874Z,3.82
2023-02-10T01:05:23.286Z,3.74
2023-02-10T01:07:50.729Z,3.80
2023-02-10T01:10:18.207Z,3.97
2023-02-10T01:12:49.302Z,3.82
2023-02-10T01:15:16.787Z,3.98
2023-02-10T01:17:44.671Z,3.97
2023-02-10T01:20:12.163Z,4.12
2023-02-10T01:22:43.904Z,3.58
2023-02-10T01:25:13.011Z,4.06
2023-02-10T01:27:40.689Z,4.08
2023-02-10T01:30:10.721Z,4.06
2023-02-10T01:32:38.150Z,4.09
2023-02-10T01:35:06.465Z,4.08
2023-02-10T01:37:38.808Z,4.09
2023-02-10T01:40:07.433Z,4.12
2023-02-10T01:42:37.324Z,4.08
2023-02-10T01:45:27.321Z,3.98
2023-02-10T01:47:57.496Z,3.95
2023-02-10T01:50:28.057Z,3.91
2023-02-10T01:52:58.811Z,3.91
2023-02-10T01:55:34.638Z,3.78
2023-02-10T01:58:04.850Z,3.79
2023-02-10T02:00:33.558Z,3.76
2023-02-10T02:03:02.445Z,3.77
2023-02-10T02:05:32.807Z,3.78
2023-02-10T02:08:04.714Z,3.78
2023-02-10T02:10:42.697Z,3.80
2023-02-10T02:13:17.771Z,3.77
2023-02-10T02:15:53.554Z,3.82
2023-02-10T02:18:32.127Z,3.73
2023-02-10T02:21:36.666Z,3.76
2023-02-10T02:24:21.576Z,3.74
2023-02-10T02:27:17.141Z,3.75
2023-02-10T02:30:24.751Z,3.66
2023-02-10T02:32:59.506Z,3.74
2023-02-10T02:35:32.770Z,3.72
2023-02-10T02:38:00.549Z,3.70
2023-02-10T02:40:27.924Z,3.78
2023-02-10T02:42:55.374Z,3.81
2023-02-10T02:45:28.917Z,3.75
2023-02-10T02:48:15.256Z,3.65
2023-02-10T02:50:53.573Z,3.53
2023-02-10T02:53:30.539Z,3.37
2023-02-10T02:56:07.095Z,3.12
2023-02-10T02:58:47.102Z,3.06
2023-02-10T03:01:17.936Z,2.99
2023-02-10T03:03:46.781Z,2.94
2023-02-10T03:06:14.314Z,2.90
2023-02-10T03:08:43.049Z,2.77
2023-02-10T03:11:10.947Z,2.86
2023-02-10T03:13:38.447Z,2.57
2023-02-10T03:16:06.620Z,3.14
2023-02-10T03:18:34.181Z,3.16
2023-02-10T03:21:02.924Z,3.13
2023-02-10T03:23:31.407Z,3.06
2023-02-10T03:25:59.642Z,3.09
2023-02-10T03:28:27.435Z,3.17
2023-02-10T03:30:56.304Z,3.18
2023-02-10T03:33:24.895Z,3.32
2023-02-10T03:35:55.080Z,3.33
2023-02-10T03:38:24.058Z,3.47
2023-02-10T03:40:52.284Z,3.48
2023-02-10T03:43:21.194Z,3.45
2023-02-10T03:45:48.786Z,3.39
2023-02-10T03:48:17.402Z,3.40
2023-02-10T03:50:47.329Z,3.38
2023-02-10T03:53:15.174Z,3.44
2023-02-10T03:55:44.023Z,3.56
2023-02-10T03:58:11.390Z,3.51
2023-02-10T04:00:42.994Z,3.43
2023-02-10T04:03:10.490Z,3.49
2023-02-10T04:05:37.941Z,3.40
2023-02-10T04:08:07.179Z,3.34
2023-02-10T04:10:34.683Z,3.34
2023-02-10T04:13:03.447Z,3.27
2023-02-10T04:15:30.829Z,3.30
2023-02-10T04:17:58.493Z,3.24
2023-02-10T04:20:26.456Z,3.19
2023-02-10T04:22:53.914Z,3.21
2023-02-10T04:25:21.496Z,3.23
2023-02-10T04:27:48.892Z,3.11
2023-02-10T04:30:17.986Z,2.96
2023-02-10T04:32:45.368Z,2.85
2023-02-10T04:35:13.071Z,2.68
2023-02-10T04:37:40.446Z,2.68
2023-02-10T04:40:08.348Z,2.69
2023-02-10T04:42:35.710Z,2.60
2023-02-10T04:45:03.086Z,2.64
2023-02-10T04:47:32.055Z,2.57
2023-02-10T04:49:59.420Z,2.55
2023-02-10T04:52:26.844Z,2.47
2023-02-10T04:54:54.331Z,2.33
2023-02-10T04:57:21.756Z,2.37
2023-02-10T04:59:49.218Z,2.32
2023-02-10T05:02:16.867Z,2.44
2023-02-10T05:04:45.883Z,2.55
2023-02-10T05:07:13.428Z,2.57
2023-02-10T05:09:40.861Z,2.50
2023-02-10T05:12:10.792Z,2.55
2023-02-10T05:14:38.153Z,2.63
2023-02-10T05:17:05.675Z,2.80
2023-02-10T05:19:33.090Z,2.98
2023-02-10T05:22:01.811Z,3.00
2023-02-10T05:24:29.202Z,3.29
2023-02-10T05:26:56.827Z,3.52
2023-02-10T05:29:25.948Z,3.60
2023-02-10T05:31:53.409Z,3.57
2023-02-10T05:34:20.780Z,3.56
2023-02-10T05:36:48.246Z,3.58
2023-02-10T05:39:27.073Z,3.43
2023-02-10T05:42:00.888Z,3.53
2023-02-10T05:44:30.716Z,3.54
2023-02-10T05:46:58.145Z,3.64
2023-02-10T05:49:26.091Z,3.61
2023-02-10T05:51:54.214Z,3.69
2023-02-10T05:54:22.971Z,3.69
2023-02-10T05:56:51.349Z,3.65
2023-02-10T05:59:18.761Z,3.68
2023-02-10T06:01:46.378Z,3.69
2023-02-10T06:04:13.839Z,3.85
2023-02-10T06:06:41.256Z,3.72
2023-02-10T06:09:08.974Z,3.77
2023-02-10T06:11:37.834Z,3.78
2023-02-10T06:14:05.419Z,3.81
2023-02-10T06:16:32.822Z,3.73
2023-02-10T06:19:00.805Z,3.78
2023-02-10T06:21:30.345Z,3.78
2023-02-10T06:23:57.762Z,3.91
2023-02-10T06:26:25.322Z,3.92
2023-02-10T06:28:54.074Z,3.96
2023-02-10T06:31:21.636Z,3.99
2023-02-10T06:33:49.083Z,3.97
2023-02-10T06:36:16.480Z,3.97
2023-02-10T06:38:43.974Z,3.92
2023-02-10T06:41:11.381Z,3.99
2023-02-10T06:43:38.768Z,3.98
2023-02-10T06:46:07.919Z,3.95
2023-02-10T06:48:35.922Z,3.92
2023-02-10T06:51:03.501Z,3.98
2023-02-10T06:53:30.915Z,4.02
2023-02-10T06:55:58.606Z,4.01
2023-02-10T06:58:26.007Z,3.97
2023-02-10T07:00:53.354Z,4.07
2023-02-10T07:03:22.103Z,4.01
2023-02-10T07:05:49.956Z,4.06
2023-02-10T07:08:17.637Z,4.06
2023-02-10T07:10:45.217Z,4.07
2023-02-10T07:13:12.886Z,4.11
2023-02-10T07:15:40.898Z,4.11
2023-02-10T07:18:08.328Z,4.10
2023-02-10T07:20:37.748Z,4.13
2023-02-10T07:23:07.012Z,4.16
2023-02-10T07:25:36.158Z,4.15
2023-02-10T07:28:04.854Z,4.17
2023-02-10T07:30:32.536Z,4.17
2023-02-10T07:33:00.646Z,4.17
2023-02-10T07:35:29.544Z,4.23
2023-02-10T07:37:58.698Z,4.34
2023-02-10T07:40:29.673Z,4.40
2023-02-10T07:42:57.309Z,4.36
2023-02-10T07:45:27.241Z,4.41
2023-02-10T07:47:54.688Z,4.44
2023-02-10T07:50:22.109Z,4.56
2023-02-10T07:52:49.624Z,4.67
2023-02-10T07:55:18.673Z,4.70
2023-02-10T07:57:46.109Z,4.53
2023-02-10T08:00:15.435Z,4.44
2023-02-10T08:02:42.881Z,4.53
2023-02-10T08:05:10.884Z,4.42
2023-02-10T08:07:40.367Z,4.38
2023-02-10T08:10:11.658Z,4.45
2023-02-10T08:12:42.886Z,4.49
2023-02-10T08:15:12.590Z,4.47
2023-02-10T08:17:40.938Z,4.38
2023-02-10T08:20:09.510Z,4.58
2023-02-10T08:22:39.111Z,4.63
2023-02-10T08:25:07.368Z,4.60
2023-02-10T08:27:35.013Z,4.65
2023-02-10T08:30:05.912Z,4.72
2023-02-10T08:32:33.514Z,4.70
2023-02-10T08:35:00.934Z,4.94
2023-02-10T08:37:28.553Z,5.01
2023-02-10T08:39:57.080Z,5.09
2023-02-10T08:42:24.466Z,4.75
2023-02-10T08:44:52.341Z,5.03
2023-02-10T08:47:21.109Z,5.12
2023-02-10T08:49:48.798Z,5.07
2023-02-10T08:52:16.666Z,4.76
2023-02-10T08:54:50.083Z,4.91
2023-02-10T08:57:18.663Z,4.73
2023-02-10T08:59:50.283Z,4.51
2023-02-10T09:02:17.718Z,4.56
2023-02-10T09:05:09.512Z,4.62
2023-02-10T09:07:41.205Z,4.77
2023-02-10T09:10:17.664Z,4.67
2023-02-10T09:12:45.398Z,4.75
2023-02-10T09:15:15.146Z,4.80
2023-02-10T09:17:43.784Z,5.04
2023-02-10T09:20:13.819Z,5.07
2023-02-10T09:22:41.195Z,4.90
2023-02-10T09:25:08.716Z,4.86
2023-02-10T09:27:36.134Z,4.85
2023-02-10T09:30:04.815Z,4.77
2023-02-10T09:32:34.246Z,4.92
2023-02-10T09:35:01.633Z,4.93
2023-02-10T09:37:31.844Z,5.26
2023-02-10T09:40:00.972Z,5.09
2023-02-10T09:42:47.951Z,5.17
2023-02-10T09:45:20.403Z,5.38
2023-02-10T09:47:52.214Z,5.49
2023-02-10T09:50:43.814Z,5.49
2023-02-10T09:53:21.323Z,5.08
2023-02-10T09:55:52.970Z,5.03
2023-02-10T09:58:26.420Z,5.08
2023-02-10T10:00:59.645Z,5.13
2023-02-10T10:03:36.652Z,5.32
2023-02-10T10:06:13.931Z,5.51
2023-02-10T10:08:50.397Z,5.64
2023-02-10T10:11:30.779Z,5.76
2023-02-10T10:14:04.191Z,5.69
2023-02-10T10:17:19.504Z,5.84
2023-02-10T10:20:03.511Z,5.49
2023-02-10T10:22:44.921Z,5.48
2023-02-10T10:25:28.239Z,5.66
2023-02-10T10:28:10.864Z,5.51
2023-02-10T10:30:47.071Z,5.71
2023-02-10T10:33:29.347Z,5.69
2023-02-10T10:36:02.451Z,5.83
2023-02-10T10:38:32.706Z,6.14
2023-02-10T10:41:06.801Z,6.19
2023-02-10T10:43:47.423Z,6.47
2023-02-10T10:46:21.389Z,6.47
2023-02-10T10:48:49.101Z,6.70
2023-02-10T10:51:18.434Z,6.82
2023-02-10T10:53:50.513Z,6.45
2023-02-10T10:56:45.242Z,6.31
2023-02-10T10:59:20.124Z,6.61
2023-02-10T11:01:49.863Z,6.40
2023-02-10T11:04:19.798Z,6.92
2023-02-10T11:06:50.735Z,7.08
2023-02-10T11:09:25.549Z,7.01
2023-02-10T11:11:56.859Z,6.50
2023-02-10T11:14:27.859Z,6.15
2023-02-10T11:17:02.545Z,5.86
2023-02-10T11:19:43.796Z,5.99
2023-02-10T11:22:20.337Z,6.18
2023-02-10T11:24:54.896Z,6.12
2023-02-10T11:27:28.989Z,6.01
2023-02-10T11:30:03.294Z,6.14
2023-02-10T11:32:36.002Z,6.22
2023-02-10T11:35:08.363Z,6.31
2023-02-10T11:37:41.531Z,6.27
2023-02-10T11:40:20.147Z,6.41
2023-02-10T11:42:51.469Z,6.64
2023-02-10T11:45:22.799Z,7.20
2023-02-10T11:48:04.027Z,7.36
2023-02-10T11:50:34.816Z,7.09
2023-02-10T11:53:04.476Z,7.48
2023-02-10T11:55:39.261Z,7.53
2023-02-10T11:58:48.547Z,7.95
2023-02-10T12:01:24.356Z,7.72
2023-02-10T12:04:02.387Z,7.75
2023-02-10T12:06:38.035Z,7.59
2023-02-10T12:09:17.230Z,7.90
2023-02-10T12:11:51.879Z,7.44
2023-02-10T12:14:39.252Z,7.80
2023-02-10T12:17:23.033Z,7.45
2023-02-10T12:20:04.263Z,7.27
2023-02-10T12:22:43.556Z,7.16
2023-02-10T12:25:18.266Z,7.71
2023-02-10T12:27:59.222Z,8.09
2023-02-10T12:30:41.225Z,8.33
2023-02-10T12:33:32.270Z,8.34
2023-02-10T12:36:10.812Z,8.50
2023-02-10T12:38:58.567Z,8.27
2023-02-10T12:41:36.404Z,7.82
2023-02-10T12:44:22.981Z,7.59
2023-02-10T12:47:05.724Z,7.46
2023-02-10T12:49:51.075Z,7.66
2023-02-10T12:52:25.348Z,7.74
2023-02-10T12:54:59.641Z,7.86
2023-02-10T12:57:31.040Z,8.26
2023-02-10T13:00:03.520Z,8.52
2023-02-10T13:02:39.895Z,8.22
2023-02-10T13:05:15.344Z,8.36
2023-02-10T13:07:50.428Z,9.09
2023-02-10T13:10:26.792Z,9.76
2023-02-10T13:12:56.492Z,9.66
2023-02-10T13:15:27.355Z,9.34
2023-02-10T13:17:56.197Z,9.67
2023-02-10T13:20:36.167Z,9.51
2023-02-10T13:23:23.243Z,9.12
2023-02-10T13:26:05.141Z,9.13
2023-02-10T13:28:44.589Z,9.32
2023-02-10T13:31:28.967Z,9.53
2023-02-10T13:34:06.310Z,9.65
2023-02-10T13:36:38.121Z,9.63
2023-02-10T13:39:08.008Z,9.62
2023-02-10T13:41:43.186Z,10.23
2023-02-10T13:44:20.479Z,10.28
2023-02-10T13:46:55.780Z,11.35
2023-02-10T13:49:25.692Z,10.10
2023-02-10T13:52:04.397Z,10.14
2023-02-10T13:54:38.013Z,10.64
2023-02-10T13:57:09.258Z,10.40
2023-02-10T13:59:41.502Z,9.98
2023-02-10T14:02:28.303Z,10.34
2023-02-10T14:05:01.421Z,10.95
2023-02-10T14:07:36.895Z,11.01
2023-02-10T14:10:37.489Z,10.32
2023-02-10T14:13:08.186Z,9.65
2023-02-10T14:15:37.459Z,9.20
2023-02-10T14:18:23.407Z,9.65
2023-02-10T14:20:59.090Z,9.49
2023-02-10T14:23:26.556Z,10.52
2023-02-10T14:25:59.276Z,10.06
2023-02-10T14:28:31.551Z,9.43
2023-02-10T14:31:05.049Z,9.57
2023-02-10T14:33:34.494Z,9.18
2023-02-10T14:36:08.075Z,8.84
2023-02-10T14:38:39.077Z,8.90
2023-02-10T14:41:19.788Z,8.96
2023-02-10T14:43:49.943Z,9.09
2023-02-10T14:46:22.496Z,9.46
2023-02-10T14:48:52.182Z,9.03
2023-02-10T14:51:26.037Z,8.67
2023-02-10T14:53:59.151Z,8.94
2023-02-10T14:56:27.815Z,8.82
2023-02-10T14:58:59.712Z,9.94
2023-02-10T15:01:50.255Z,10.45
2023-02-10T15:04:18.971Z,10.94
2023-02-10T15:06:49.119Z,11.58
2023-02-10T15:09:23.297Z,11.09
2023-02-10T15:12:12.168Z,10.67
2023-02-10T15:14:46.356Z,9.56
2023-02-10T15:17:20.572Z,9.42
2023-02-10T15:19:58.915Z,11.01
2023-02-10T15:22:44.946Z,9.86
2023-02-10T15:25:31.083Z,8.24
2023-02-10T15:28:16.886Z,7.52
2023-02-10T15:30:55.929Z,6.78
2023-02-10T15:33:39.197Z,6.32
2023-02-10T15:36:16.412Z,6.51
2023-02-10T15:38:53.336Z,6.32
2023-02-10T15:41:40.688Z,6.21
2023-02-10T15:44:28.334Z,6.21
2023-02-10T15:47:14.022Z,6.07
2023-02-10T15:49:43.421Z,5.91
2023-02-10T15:52:15.508Z,5.68
2023-02-10T15:54:44.314Z,5.62
2023-02-10T15:57:16.931Z,5.46
2023-02-10T15:59:52.544Z,5.34
2023-02-10T16:02:22.032Z,5.24
2023-02-10T16:04:49.906Z,4.85
2023-02-10T16:07:28.695Z,4.97
2023-02-10T16:09:57.802Z,4.83
2023-02-10T16:12:27.316Z,4.85
2023-02-10T16:14:56.191Z,4.47
2023-02-10T16:17:28.594Z,4.19
2023-02-10T16:19:59.230Z,4.24
2023-02-10T16:22:27.872Z,3.45
2023-02-10T16:24:58.041Z,4.16
2023-02-10T16:27:26.979Z,3.93
2023-02-10T16:29:54.873Z,3.64
2023-02-10T16:32:22.303Z,3.43
2023-02-10T16:34:49.763Z,3.49
2023-02-10T16:37:21.851Z,3.53
2023-02-10T16:39:51.610Z,3.76
2023-02-10T16:42:24.799Z,3.09
2023-02-10T16:44:54.128Z,3.71
2023-02-10T16:47:26.471Z,3.57
2023-02-10T16:50:06.364Z,3.98
2023-02-10T16:52:38.786Z,3.90
2023-02-10T16:55:17.864Z,3.77
2023-02-10T16:57:50.704Z,3.46
2023-02-10T17:00:20.658Z,3.15
2023-02-10T17:02:50.395Z,3.20
2023-02-10T17:05:20.782Z,3.62
2023-02-10T17:07:50.788Z,3.71
2023-02-10T17:10:24.325Z,3.68
2023-02-10T17:13:00.634Z,3.45
2023-02-10T17:15:28.822Z,3.98
2023-02-10T17:17:58.721Z,3.70
2023-02-10T17:20:30.734Z,3.77
2023-02-10T17:23:01.125Z,3.59
2023-02-10T17:25:30.979Z,3.35
2023-02-10T17:28:00.006Z,3.14
2023-02-10T17:30:30.817Z,2.81
2023-02-10T17:32:59.965Z,3.24
2023-02-10T17:35:28.787Z,3.11
2023-02-10T17:38:11.590Z,3.05
2023-02-10T17:40:39.624Z,2.80
2023-02-10T17:43:08.584Z,2.56
2023-02-10T17:45:42.057Z,2.36
2023-02-10T17:48:12.597Z,2.25
2023-02-10T17:50:41.087Z,2.26
2023-02-10T17:53:14.235Z,1.97
2023-02-10T17:55:45.815Z,1.73
2023-02-10T17:58:18.086Z,1.72
2023-02-10T18:00:46.711Z,1.64
2023-02-10T18:03:16.759Z,1.59
2023-02-10T18:05:44.435Z,1.61
2023-02-10T18:08:12.145Z,1.88
2023-02-10T18:10:41.025Z,1.92
2023-02-10T18:13:10.860Z,1.68
2023-02-10T18:15:42.213Z,1.56
2023-02-10T18:18:12.519Z,1.40
2023-02-10T18:20:46.760Z,1.66
2023-02-10T18:23:15.179Z,1.84
2023-02-10T18:25:46.477Z,2.12
2023-02-10T18:28:16.705Z,2.27
2023-02-10T18:30:51.932Z,2.78
2023-02-10T18:33:23.020Z,2.83
2023-02-10T18:35:54.373Z,2.82
2023-02-10T18:38:22.198Z,2.93
2023-02-10T18:40:53.292Z,2.97
2023-02-10T18:43:20.786Z,2.92
2023-02-10T18:45:51.095Z,3.02
2023-02-10T18:48:19.870Z,3.26
2023-02-10T18:50:48.153Z,3.66
2023-02-10T18:53:18.584Z,4.22
2023-02-10T18:55:48.452Z,4.35
2023-02-10T18:58:19.441Z,4.59
2023-02-10T19:00:49.293Z,4.49
2023-02-10T19:03:26.070Z,4.76
2023-02-10T19:05:53.522Z,4.76
2023-02-10T19:08:20.943Z,4.84
2023-02-10T19:10:48.341Z,5.02
2023-02-10T19:13:17.597Z,5.06
2023-02-10T19:15:49.235Z,4.86
2023-02-10T19:18:18.268Z,4.71
2023-02-10T19:20:50.139Z,4.99
2023-02-10T19:23:19.646Z,4.86
2023-02-10T19:25:50.233Z,5.25
2023-02-10T19:28:20.541Z,5.28
2023-02-10T19:30:48.272Z,5.33
2023-02-10T19:33:15.748Z,5.46
2023-02-10T19:35:52.528Z,5.38
2023-02-10T19:38:20.053Z,5.41
2023-02-10T19:40:47.456Z,5.48
2023-02-10T19:43:14.906Z,5.76
2023-02-10T19:45:46.562Z,5.66
2023-02-10T19:48:19.298Z,5.74
2023-02-10T19:50:48.151Z,5.79
2023-02-10T19:53:20.210Z,5.78
2023-02-10T19:55:51.278Z,5.79
2023-02-10T19:58:19.214Z,5.91
2023-02-10T20:00:52.690Z,5.87
2023-02-10T20:03:23.071Z,5.86
2023-02-10T20:05:52.145Z,6.08
2023-02-10T20:08:19.865Z,6.42
2023-02-10T20:10:50.556Z,6.48
2023-02-10T20:13:20.175Z,6.54
2023-02-10T20:15:48.759Z,6.40
2023-02-10T20:18:17.518Z,6.31
2023-02-10T20:20:54.895Z,6.31
2023-02-10T20:23:22.514Z,6.44
2023-02-10T20:25:52.194Z,6.37
2023-02-10T20:28:19.791Z,6.39
2023-02-10T20:30:47.516Z,6.50
2023-02-10T20:33:15.006Z,6.57
2023-02-10T20:35:45.113Z,6.49
2023-02-10T20:38:14.098Z,6.44
2023-02-10T20:40:42.665Z,6.22
2023-02-10T20:43:10.408Z,6.27
2023-02-10T20:45:37.870Z,6.23
2023-02-10T20:48:06.057Z,6.20
2023-02-10T20:50:34.934Z,6.07
2023-02-10T20:53:07.529Z,5.93
2023-02-10T20:55:40.019Z,6.10
2023-02-10T20:58:09.532Z,6.12
2023-02-10T21:00:38.700Z,6.19
2023-02-10T21:03:08.347Z,6.32
2023-02-10T21:05:36.009Z,6.31
2023-02-10T21:08:03.487Z,6.19
2023-02-10T21:10:32.581Z,6.11
2023-02-10T21:13:03.936Z,5.96
2023-02-10T21:15:33.887Z,5.97
2023-02-10T21:18:05.828Z,6.20
2023-02-10T21:20:35.069Z,6.36
2023-02-10T21:23:08.563Z,6.39
2023-02-10T21:25:36.902Z,6.51
2023-02-10T21:28:10.718Z,6.53
2023-02-10T21:30:42.046Z,6.61
2023-02-10T21:33:10.757Z,6.61
2023-02-10T21:35:45.636Z,6.63
2023-02-10T21:38:13.402Z,6.65
2023-02-10T21:40:41.101Z,6.71
2023-02-10T21:43:10.454Z,6.62
2023-02-10T21:45:39.846Z,6.71
2023-02-10T21:48:08.278Z,6.60
2023-02-10T21:50:36.548Z,6.66
2023-02-10T21:53:03.989Z,6.61
2023-02-10T21:55:31.514Z,6.59
2023-02-10T21:57:59.213Z,6.56
2023-02-10T22:00:27.988Z,6.60
2023-02-10T22:02:57.466Z,6.58
2023-02-10T22:05:25.961Z,6.63
2023-02-10T22:07:55.241Z,6.61
2023-02-10T22:10:25.522Z,6.60
2023-02-10T22:12:55.292Z,6.56
2023-02-10T22:15:22.674Z,6.54
2023-02-10T22:17:51.425Z,6.61
2023-02-10T22:20:21.060Z,6.59
2023-02-10T22:22:48.500Z,6.54
2023-02-10T22:25:17.540Z,6.61
2023-02-10T22:27:47.925Z,6.66
2023-02-10T22:30:37.747Z,6.67
2023-02-10T22:33:16.949Z,6.68
2023-02-10T22:35:46.122Z,6.67
2023-02-10T22:38:15.097Z,6.53
2023-02-10T22:40:43.330Z,6.55
2023-02-10T22:43:13.444Z,6.51
2023-02-10T22:45:42.003Z,6.55
2023-02-10T22:48:10.757Z,6.53
2023-02-10T22:50:40.054Z,6.22
2023-02-10T22:53:14.277Z,6.50
2023-02-10T22:55:43.522Z,6.39
2023-02-10T22:58:11.104Z,6.44
2023-02-10T23:00:42.002Z,6.50
2023-02-10T23:03:18.324Z,6.60
2023-02-10T23:05:47.512Z,6.61
2023-02-10T23:08:16.332Z,6.56
2023-02-10T23:10:43.767Z,6.58
2023-02-10T23:13:11.565Z,6.64
2023-02-10T23:15:38.994Z,6.69
2023-02-10T23:18:08.368Z,6.65
2023-02-10T23:20:42.039Z,6.68
2023-02-10T23:23:09.665Z,6.67
2023-02-10T23:25:37.129Z,6.68
2023-02-10T23:28:04.997Z,6.75
2023-02-10T23:30:32.472Z,6.73
2023-02-10T23:33:00.527Z,6.49
2023-02-10T23:35:29.261Z,6.62
2023-02-10T23:38:00.138Z,6.74
2023-02-10T23:40:37.748Z,6.75
2023-02-10T23:43:05.719Z,6.84
2023-02-10T23:45:36.534Z,6.77
2023-02-10T23:48:04.794Z,6.91
2023-02-10T23:50:42.936Z,6.90
2023-02-10T23:53:12.011Z,6.90
2023-02-10T23:55:42.652Z,6.86
2023-02-10T23:58:12.970Z,6.89
